Time;durP1;ratioP1;P1;durP2;ratioP2;P2;SDS_P1;SDS_P2;PMS_P1;PMS_P2;Temp;Humidity;BMP_temperature;BMP_pressure;BME280_temperature;BME280_humidity;BME280_pressure;Samples;Min_cycle;Max_cycle;Signal;HPM_P1;HPM_P2
2021/12/30 00:00:54;;;;;;;;;;;12.10;99.90;;;;;;4993112;28;19964;-79
2021/12/30 00:03:20;;;;;;;;;;;12.20;99.90;;;;;;4992651;28;19921;-79
2021/12/30 00:05:46;;;;;;;;;;;12.20;99.90;;;;;;4993288;28;19906;-78
2021/12/30 00:08:12;;;;;;;;;;;12.20;99.90;;;;;;4993373;28;19906;-80
2021/12/30 00:10:38;;;;;;;;;;;12.30;99.90;;;;;;4976874;28;20013;-78
2021/12/30 00:13:04;;;;;;;;;;;12.30;99.90;;;;;;4993093;28;19906;-79
2021/12/30 00:15:29;;;;;;;;;;;12.30;99.90;;;;;;4993419;28;19951;-80
2021/12/30 00:17:55;;;;;;;;;;;12.30;99.90;;;;;;4977001;28;19917;-79
2021/12/30 00:20:21;;;;;;;;;;;12.30;99.90;;;;;;4994177;28;19917;-79
2021/12/30 00:22:47;;;;;;;;;;;12.30;99.90;;;;;;4993265;28;19914;-79
2021/12/30 00:25:15;;;;;;;;;;;12.30;99.90;;;;;;4993021;28;19909;-78
2021/12/30 00:27:40;;;;;;;;;;;12.30;99.90;;;;;;4976847;28;20362;-79
2021/12/30 00:30:08;;;;;;;;;;;12.20;99.90;;;;;;4992887;28;19906;-80
2021/12/30 00:32:33;;;;;;;;;;;12.20;99.90;;;;;;4992863;28;19906;-78
2021/12/30 00:34:59;;;;;;;;;;;12.20;99.90;;;;;;4993810;28;20352;-80
2021/12/30 00:37:25;;;;;;;;;;;12.10;99.90;;;;;;4992875;28;19956;-79
2021/12/30 00:39:50;;;;;;;;;;;12.20;99.90;;;;;;4977071;28;19957;-78
2021/12/30 00:42:16;;;;;;;;;;;12.20;99.90;;;;;;4976749;28;19914;-79
2021/12/30 00:44:42;;;;;;;;;;;12.20;99.90;;;;;;4994295;28;19905;-77
2021/12/30 00:47:07;;;;;;;;;;;12.20;99.90;;;;;;4992250;28;19906;-78
2021/12/30 00:49:33;;;;;;;;;;;12.20;99.90;;;;;;4993387;28;19952;-78
2021/12/30 00:51:58;;;;;;;;;;;12.30;99.90;;;;;;4977975;28;19941;-78
2021/12/30 00:54:24;;;;;;;;;;;12.30;99.90;;;;;;4996077;28;20321;-79
2021/12/30 00:56:50;;;;;;;;;;;12.30;99.90;;;;;;4996680;28;19906;-78
2021/12/30 00:59:16;;;;;;;;;;;12.30;99.90;;;;;;4996538;28;19913;-79
2021/12/30 01:01:42;;;;;;;;;;;12.30;99.90;;;;;;4997676;28;19913;-79
2021/12/30 01:04:07;;;;;;;;;;;12.30;99.90;;;;;;4980200;28;20020;-79
2021/12/30 01:06:33;;;;;;;;;;;12.20;99.90;;;;;;4996452;28;19913;-78
2021/12/30 01:08:59;;;;;;;;;;;12.20;99.90;;;;;;4997428;28;19913;-77
2021/12/30 01:11:26;;;;;;;;;;;12.10;99.90;;;;;;4980416;28;19910;-78
2021/12/30 01:14:01;;;;;;;;;;;12.10;99.90;;;;;;4995898;28;20364;-78
2021/12/30 01:16:29;;;;;;;;;;;12.10;99.90;;;;;;4997664;28;19910;-78
2021/12/30 01:19:04;;;;;;;;;;;12.20;99.90;;;;;;4995987;28;20347;-78
2021/12/30 01:21:31;;;;;;;;;;;12.20;99.90;;;;;;4996090;28;19972;-79
2021/12/30 01:23:57;;;;;;;;;;;12.30;99.90;;;;;;4996033;28;19921;-77
2021/12/30 01:26:23;;;;;;;;;;;12.30;99.90;;;;;;4995702;28;19906;-77
2021/12/30 01:28:50;;;;;;;;;;;12.30;99.90;;;;;;4995524;28;19917;-77
2021/12/30 01:31:16;;;;;;;;;;;12.30;99.90;;;;;;4979205;28;20343;-80
2021/12/30 01:33:43;;;;;;;;;;;12.30;99.90;;;;;;4996656;28;19952;-78
2021/12/30 01:36:09;;;;;;;;;;;12.40;99.90;;;;;;4979832;28;19999;-78
2021/12/30 01:38:35;;;;;;;;;;;12.40;99.90;;;;;;4979731;28;20358;-78
2021/12/30 01:41:01;;;;;;;;;;;12.40;99.90;;;;;;4995821;28;19956;-79
2021/12/30 01:43:27;;;;;;;;;;;12.40;99.90;;;;;;4997199;28;20016;-78
2021/12/30 01:45:53;;;;;;;;;;;12.40;99.90;;;;;;4996612;28;19957;-77
2021/12/30 01:48:20;;;;;;;;;;;12.40;99.90;;;;;;4995305;28;19917;-83
2021/12/30 01:50:47;;;;;;;;;;;12.40;99.90;;;;;;4995517;28;19910;-78
2021/12/30 01:53:12;;;;;;;;;;;12.40;99.90;;;;;;4996339;28;19912;-77
2021/12/30 01:55:39;;;;;;;;;;;12.40;99.90;;;;;;4995389;28;19905;-79
2021/12/30 01:58:04;;;;;;;;;;;12.40;99.90;;;;;;4995159;28;19905;-77
2021/12/30 02:00:31;;;;;;;;;;;12.40;99.90;;;;;;4995736;28;19920;-78
2021/12/30 02:02:56;;;;;;;;;;;12.40;99.90;;;;;;4994925;28;19914;-78
2021/12/30 02:05:22;;;;;;;;;;;12.50;99.90;;;;;;4978872;28;19932;-82
2021/12/30 02:07:48;;;;;;;;;;;12.50;99.90;;;;;;4979196;28;19961;-77
2021/12/30 02:10:14;;;;;;;;;;;12.50;99.90;;;;;;4994955;28;20349;-78
2021/12/30 02:12:41;;;;;;;;;;;12.50;99.90;;;;;;4995131;28;19906;-78
2021/12/30 02:15:09;;;;;;;;;;;12.60;99.90;;;;;;4996575;28;19924;-78
2021/12/30 02:17:35;;;;;;;;;;;12.60;99.90;;;;;;4996051;28;19960;-78
2021/12/30 02:20:04;;;;;;;;;;;12.60;99.90;;;;;;4998184;28;19910;-78
2021/12/30 02:22:29;;;;;;;;;;;12.70;99.90;;;;;;4999109;28;19910;-80
2021/12/30 02:24:57;;;;;;;;;;;12.70;99.90;;;;;;4999767;28;19906;-79
2021/12/30 02:27:23;;;;;;;;;;;12.70;99.90;;;;;;5002032;28;19913;-84
2021/12/30 02:29:49;;;;;;;;;;;12.70;99.90;;;;;;5001079;28;19912;-78
2021/12/30 02:32:14;;;;;;;;;;;12.70;99.90;;;;;;5000747;28;19905;-79
2021/12/30 02:34:40;;;;;;;;;;;12.80;99.90;;;;;;5000499;28;19913;-79
2021/12/30 02:37:07;;;;;;;;;;;12.80;99.90;;;;;;5001156;28;19980;-79
2021/12/30 02:39:33;;;;;;;;;;;12.80;99.90;;;;;;5001432;28;19905;-79
2021/12/30 02:42:00;;;;;;;;;;;12.80;99.90;;;;;;4997504;28;19916;-79
2021/12/30 02:44:26;;;;;;;;;;;12.80;99.90;;;;;;4995611;28;19944;-82
2021/12/30 02:46:52;;;;;;;;;;;12.80;99.90;;;;;;4995545;28;19909;-77
2021/12/30 02:49:18;;;;;;;;;;;12.80;99.90;;;;;;4996044;28;19921;-78
2021/12/30 02:51:43;;;;;;;;;;;12.80;99.90;;;;;;4978235;28;19910;-78
2021/12/30 02:54:09;;;;;;;;;;;12.90;99.90;;;;;;4978347;28;20269;-78
2021/12/30 02:56:34;;;;;;;;;;;12.80;99.90;;;;;;4995353;28;20277;-78
2021/12/30 02:59:00;;;;;;;;;;;12.90;99.90;;;;;;4994211;28;19910;-79
2021/12/30 03:01:27;;;;;;;;;;;12.90;99.90;;;;;;4994153;28;20250;-78
2021/12/30 03:03:53;;;;;;;;;;;12.90;99.90;;;;;;4994387;28;19910;-80
2021/12/30 03:06:19;;;;;;;;;;;12.90;99.90;;;;;;4994332;28;19916;-79
2021/12/30 03:08:46;;;;;;;;;;;12.90;99.90;;;;;;4994834;28;19905;-77
2021/12/30 03:11:11;;;;;;;;;;;12.90;99.90;;;;;;4994545;28;19906;-79
2021/12/30 03:13:41;;;;;;;;;;;13.00;99.90;;;;;;4993945;28;20337;-78
2021/12/30 03:16:11;;;;;;;;;;;13.00;99.90;;;;;;4993927;28;19960;-78
2021/12/30 03:18:37;;;;;;;;;;;13.00;99.90;;;;;;4993633;28;20017;-79
2021/12/30 03:21:04;;;;;;;;;;;13.00;99.90;;;;;;4993381;28;19941;-79
2021/12/30 03:23:31;;;;;;;;;;;13.00;99.90;;;;;;4993685;28;20441;-83
2021/12/30 03:25:57;;;;;;;;;;;13.00;99.90;;;;;;4993072;28;20366;-78
2021/12/30 03:28:23;;;;;;;;;;;13.00;99.90;;;;;;4993486;28;19906;-77
2021/12/30 03:30:50;;;;;;;;;;;13.00;99.90;;;;;;4993728;28;19912;-76
2021/12/30 03:33:15;;;;;;;;;;;13.00;99.90;;;;;;4977372;28;20343;-76
2021/12/30 03:35:41;;;;;;;;;;;13.00;99.90;;;;;;4994555;28;19905;-76
2021/12/30 03:38:07;;;;;;;;;;;13.00;99.90;;;;;;4994993;28;20346;-76
2021/12/30 03:40:32;;;;;;;;;;;13.00;99.90;;;;;;4993273;28;20065;-80
2021/12/30 03:42:58;;;;;;;;;;;13.00;99.90;;;;;;4994875;28;20227;-76
2021/12/30 03:45:24;;;;;;;;;;;13.00;99.90;;;;;;4993312;28;19913;-76
2021/12/30 03:47:51;;;;;;;;;;;13.10;99.90;;;;;;4993120;28;19918;-76
2021/12/30 03:50:21;;;;;;;;;;;13.00;99.90;;;;;;4977358;28;19910;-76
2021/12/30 03:52:47;;;;;;;;;;;13.10;99.90;;;;;;4994475;28;19952;-76
2021/12/30 03:55:13;;;;;;;;;;;13.10;99.90;;;;;;4993212;28;19906;-77
2021/12/30 03:57:39;;;;;;;;;;;13.10;99.90;;;;;;4993303;28;19912;-76
2021/12/30 04:00:05;;;;;;;;;;;13.10;99.90;;;;;;4994346;28;20369;-76
2021/12/30 04:02:30;;;;;;;;;;;13.10;99.90;;;;;;4994702;28;20442;-77
2021/12/30 04:04:56;;;;;;;;;;;13.10;99.90;;;;;;4994377;28;19942;-76
2021/12/30 04:07:21;;;;;;;;;;;13.10;99.90;;;;;;4992903;28;19921;-77
2021/12/30 04:09:47;;;;;;;;;;;13.20;99.90;;;;;;4992820;28;19914;-75
2021/12/30 04:12:12;;;;;;;;;;;13.10;99.90;;;;;;4994938;28;19909;-77
2021/12/30 04:14:38;;;;;;;;;;;13.20;99.90;;;;;;4993510;28;19988;-78
2021/12/30 04:17:04;;;;;;;;;;;13.20;99.90;;;;;;4995173;28;20274;-76
2021/12/30 04:19:30;;;;;;;;;;;13.20;99.90;;;;;;4995825;28;19917;-76
2021/12/30 04:21:57;;;;;;;;;;;13.20;99.90;;;;;;4996424;28;20333;-77
2021/12/30 04:24:22;;;;;;;;;;;13.20;99.90;;;;;;4997870;28;19905;-76
2021/12/30 04:26:50;;;;;;;;;;;13.20;99.90;;;;;;5000737;28;19944;-76
2021/12/30 04:29:16;;;;;;;;;;;13.20;99.90;;;;;;4985342;28;20358;-77
2021/12/30 04:31:42;;;;;;;;;;;13.20;99.90;;;;;;5002576;28;20346;-76
2021/12/30 04:34:07;;;;;;;;;;;13.30;99.90;;;;;;4985462;28;19993;-78
2021/12/30 04:36:33;;;;;;;;;;;13.30;99.90;;;;;;5001417;28;19977;-77
2021/12/30 04:38:58;;;;;;;;;;;13.30;99.90;;;;;;5001045;28;19902;-77
2021/12/30 04:41:24;;;;;;;;;;;13.30;99.90;;;;;;5001096;28;20024;-79
2021/12/30 04:43:50;;;;;;;;;;;13.30;99.90;;;;;;5001445;28;19916;-78
2021/12/30 04:46:15;;;;;;;;;;;13.40;99.90;;;;;;5000500;28;19928;-77
2021/12/30 04:48:41;;;;;;;;;;;13.40;99.90;;;;;;4999195;28;19928;-82
2021/12/30 04:51:06;;;;;;;;;;;13.40;99.90;;;;;;4998300;28;19917;-77
2021/12/30 04:53:33;;;;;;;;;;;13.40;99.90;;;;;;4996913;28;19928;-77
2021/12/30 04:55:59;;;;;;;;;;;13.50;99.90;;;;;;4997552;28;19906;-83
2021/12/30 04:58:25;;;;;;;;;;;13.50;99.90;;;;;;4996478;28;19909;-77
2021/12/30 05:00:50;;;;;;;;;;;13.50;99.90;;;;;;4980103;28;19914;-77
2021/12/30 05:03:16;;;;;;;;;;;13.50;99.90;;;;;;4995998;28;20266;-76
2021/12/30 05:05:47;;;;;;;;;;;13.50;99.90;;;;;;4996414;28;19918;-82
2021/12/30 05:08:13;;;;;;;;;;;13.60;99.90;;;;;;4997448;28;19945;-78
2021/12/30 05:10:39;;;;;;;;;;;13.60;99.90;;;;;;4997412;28;19909;-77
2021/12/30 05:13:06;;;;;;;;;;;13.70;99.90;;;;;;4998236;28;19976;-78
2021/12/30 05:15:32;;;;;;;;;;;13.70;99.90;;;;;;4997758;28;19906;-78
2021/12/30 05:17:58;;;;;;;;;;;13.70;99.90;;;;;;4996799;28;20012;-77
2021/12/30 05:20:23;;;;;;;;;;;13.70;99.90;;;;;;4998179;28;19968;-77
2021/12/30 05:22:49;;;;;;;;;;;13.70;99.90;;;;;;4998615;28;20000;-79
2021/12/30 05:25:15;;;;;;;;;;;13.80;99.90;;;;;;4980964;28;20332;-76
2021/12/30 05:27:41;;;;;;;;;;;13.80;99.90;;;;;;4998367;28;19988;-78
2021/12/30 05:30:08;;;;;;;;;;;13.80;99.90;;;;;;4998834;28;19914;-75
2021/12/30 05:32:34;;;;;;;;;;;13.90;99.90;;;;;;4997327;28;19995;-76
2021/12/30 05:35:00;;;;;;;;;;;13.90;99.90;;;;;;4995846;28;19906;-76
2021/12/30 05:37:26;;;;;;;;;;;13.90;99.90;;;;;;4979507;28;20020;-80
2021/12/30 05:39:51;;;;;;;;;;;13.90;99.90;;;;;;4996764;28;19928;-77
2021/12/30 05:42:17;;;;;;;;;;;13.90;99.90;;;;;;4995511;28;19925;-76
2021/12/30 05:44:43;;;;;;;;;;;13.90;99.90;;;;;;4996650;28;19948;-82
2021/12/30 05:47:08;;;;;;;;;;;14.00;99.90;;;;;;4995388;28;20385;-75
2021/12/30 05:49:34;;;;;;;;;;;14.00;99.90;;;;;;4995111;28;19937;-76
2021/12/30 05:51:59;;;;;;;;;;;14.00;99.90;;;;;;4995382;28;19925;-75
2021/12/30 05:54:25;;;;;;;;;;;14.00;99.90;;;;;;4995341;28;19976;-75
2021/12/30 05:56:50;;;;;;;;;;;14.10;99.90;;;;;;4995152;28;19993;-75
2021/12/30 05:59:16;;;;;;;;;;;14.10;99.90;;;;;;4994989;28;19910;-77
2021/12/30 06:01:41;;;;;;;;;;;14.10;99.90;;;;;;4994838;28;19914;-76
2021/12/30 06:04:07;;;;;;;;;;;14.10;99.90;;;;;;4979007;28;19920;-76
2021/12/30 06:06:32;;;;;;;;;;;14.10;99.90;;;;;;4995998;28;19993;-76
2021/12/30 06:08:58;;;;;;;;;;;14.20;99.90;;;;;;4978719;28;19910;-76
2021/12/30 06:11:23;;;;;;;;;;;14.10;99.90;;;;;;4996483;28;19906;-75
2021/12/30 06:13:49;;;;;;;;;;;14.10;99.90;;;;;;4996152;28;19913;-82
2021/12/30 06:16:14;;;;;;;;;;;14.20;99.90;;;;;;4978455;28;19909;-76
2021/12/30 06:18:40;;;;;;;;;;;14.20;99.90;;;;;;4978890;28;19910;-75
2021/12/30 06:21:05;;;;;;;;;;;14.20;99.90;;;;;;4994704;28;20273;-75
2021/12/30 06:23:31;;;;;;;;;;;14.20;99.90;;;;;;4995614;28;20282;-76
2021/12/30 06:25:56;;;;;;;;;;;14.20;99.90;;;;;;4996194;28;20340;-76
2021/12/30 06:28:22;;;;;;;;;;;14.20;99.90;;;;;;4978444;28;19916;-77
2021/12/30 06:30:48;;;;;;;;;;;14.30;99.90;;;;;;4995836;28;19912;-76
2021/12/30 06:33:13;;;;;;;;;;;14.20;99.90;;;;;;4994733;28;19906;-76
2021/12/30 06:35:39;;;;;;;;;;;14.30;99.90;;;;;;4993985;28;19905;-76
2021/12/30 06:38:05;;;;;;;;;;;14.30;99.90;;;;;;4995246;28;19912;-76
2021/12/30 06:40:30;;;;;;;;;;;14.30;99.90;;;;;;4994278;28;19913;-77
2021/12/30 06:42:56;;;;;;;;;;;14.30;99.90;;;;;;4995784;28;19909;-76
2021/12/30 06:45:22;;;;;;;;;;;14.30;99.90;;;;;;4995039;28;19906;-76
2021/12/30 06:47:48;;;;;;;;;;;14.30;99.90;;;;;;4994087;28;19916;-77
2021/12/30 06:50:15;;;;;;;;;;;14.30;99.90;;;;;;4993746;28;19918;-76
2021/12/30 06:52:41;;;;;;;;;;;14.30;99.90;;;;;;4994124;28;20015;-77
2021/12/30 06:55:07;;;;;;;;;;;14.30;99.90;;;;;;4978478;28;20306;-76
2021/12/30 06:57:33;;;;;;;;;;;14.30;99.90;;;;;;4994846;28;20434;-77
2021/12/30 06:59:59;;;;;;;;;;;14.30;99.90;;;;;;4995702;28;19932;-76
2021/12/30 07:02:24;;;;;;;;;;;14.30;99.90;;;;;;4994722;28;19993;-77
2021/12/30 07:04:50;;;;;;;;;;;14.30;99.90;;;;;;4994020;28;19944;-77
2021/12/30 07:07:15;;;;;;;;;;;14.30;99.90;;;;;;4993925;28;19910;-76
2021/12/30 07:09:41;;;;;;;;;;;14.30;99.90;;;;;;4993892;28;19913;-76
2021/12/30 07:12:07;;;;;;;;;;;14.30;99.90;;;;;;4979479;28;19928;-77
2021/12/30 07:14:32;;;;;;;;;;;14.30;99.90;;;;;;4999098;28;19906;-77
2021/12/30 07:16:58;;;;;;;;;;;14.30;99.90;;;;;;4996344;28;19907;-77
2021/12/30 07:19:23;;;;;;;;;;;14.40;99.90;;;;;;4977545;28;19976;-76
2021/12/30 07:21:50;;;;;;;;;;;14.40;99.90;;;;;;4993550;28;20063;-76
2021/12/30 07:24:16;;;;;;;;;;;14.40;99.90;;;;;;4993517;28;19960;-76
2021/12/30 07:26:41;;;;;;;;;;;14.40;99.90;;;;;;4995432;28;19968;-77
2021/12/30 07:29:07;;;;;;;;;;;14.40;99.90;;;;;;4995542;28;19920;-77
2021/12/30 07:31:33;;;;;;;;;;;14.40;99.90;;;;;;4993661;28;19913;-77
2021/12/30 07:33:58;;;;;;;;;;;14.40;99.90;;;;;;4977296;28;19949;-78
2021/12/30 07:36:24;;;;;;;;;;;14.40;99.90;;;;;;4994501;28;20405;-77
2021/12/30 07:38:49;;;;;;;;;;;14.40;99.90;;;;;;4993600;28;20000;-77
2021/12/30 07:41:15;;;;;;;;;;;14.40;99.90;;;;;;4993382;28;20300;-75
2021/12/30 07:43:41;;;;;;;;;;;14.40;99.90;;;;;;4993463;28;19910;-76
2021/12/30 07:46:09;;;;;;;;;;;14.40;99.90;;;;;;4993168;28;19914;-78
2021/12/30 07:48:34;;;;;;;;;;;14.40;99.90;;;;;;4994518;28;19918;-77
2021/12/30 07:51:00;;;;;;;;;;;14.40;99.90;;;;;;4993246;28;19906;-78
2021/12/30 07:53:25;;;;;;;;;;;14.50;99.90;;;;;;4977928;28;20044;-78
2021/12/30 07:55:51;;;;;;;;;;;14.40;99.90;;;;;;4995452;28;19913;-78
2021/12/30 07:58:16;;;;;;;;;;;14.50;99.90;;;;;;4977046;28;19914;-78
2021/12/30 08:00:42;;;;;;;;;;;14.50;99.90;;;;;;4993662;28;19910;-77
2021/12/30 08:03:07;;;;;;;;;;;14.50;99.90;;;;;;4992773;28;19910;-76
2021/12/30 08:05:33;;;;;;;;;;;14.50;99.90;;;;;;4994764;28;19906;-79
2021/12/30 08:07:59;;;;;;;;;;;14.50;99.90;;;;;;4993353;28;20005;-83
2021/12/30 08:10:25;;;;;;;;;;;14.50;99.90;;;;;;4977039;28;20007;-78
2021/12/30 08:12:52;;;;;;;;;;;14.50;99.90;;;;;;4992849;28;19910;-78
2021/12/30 08:15:18;;;;;;;;;;;14.50;99.90;;;;;;4994217;28;19910;-77
2021/12/30 08:17:45;;;;;;;;;;;14.50;99.90;;;;;;4994239;28;19912;-78
2021/12/30 08:20:11;;;;;;;;;;;14.50;99.90;;;;;;4992923;28;19953;-78
2021/12/30 08:22:37;;;;;;;;;;;14.60;99.90;;;;;;4993436;28;19940;-78
2021/12/30 08:25:03;;;;;;;;;;;14.60;99.90;;;;;;4993606;28;19910;-81
2021/12/30 08:27:28;;;;;;;;;;;14.50;99.90;;;;;;4993654;28;20274;-77
2021/12/30 08:29:54;;;;;;;;;;;14.50;99.90;;;;;;4993638;28;19917;-77
2021/12/30 08:32:19;;;;;;;;;;;14.60;99.90;;;;;;4994877;28;19905;-79
2021/12/30 08:34:45;;;;;;;;;;;14.60;99.90;;;;;;5000180;28;19906;-78
2021/12/30 08:37:12;;;;;;;;;;;14.60;99.90;;;;;;4996954;28;19917;-76
2021/12/30 08:39:38;;;;;;;;;;;14.60;99.90;;;;;;4994746;28;19952;-77
2021/12/30 08:42:05;;;;;;;;;;;14.70;99.90;;;;;;4994003;28;19913;-85
2021/12/30 08:44:30;;;;;;;;;;;14.70;99.90;;;;;;4994508;28;19918;-78
2021/12/30 08:46:57;;;;;;;;;;;14.80;99.90;;;;;;4995567;28;20389;-78
2021/12/30 08:49:23;;;;;;;;;;;14.80;99.90;;;;;;4994067;28;19929;-78
2021/12/30 08:51:49;;;;;;;;;;;14.80;99.90;;;;;;4998070;28;20402;-79
2021/12/30 08:54:14;;;;;;;;;;;14.80;99.90;;;;;;4979510;28;20384;-79
2021/12/30 08:56:40;;;;;;;;;;;14.90;99.90;;;;;;4994835;28;20466;-79
2021/12/30 08:59:07;;;;;;;;;;;14.90;99.90;;;;;;4977137;28;19916;-84
2021/12/30 09:01:32;;;;;;;;;;;14.90;99.90;;;;;;4992341;28;20343;-78
2021/12/30 09:03:58;;;;;;;;;;;14.80;99.90;;;;;;4992435;28;19964;-80
2021/12/30 09:06:24;;;;;;;;;;;14.80;99.90;;;;;;4993086;28;19917;-78
2021/12/30 09:08:50;;;;;;;;;;;14.80;99.90;;;;;;4992683;28;19932;-78
2021/12/30 09:11:15;;;;;;;;;;;14.90;99.90;;;;;;4975580;28;20362;-78
2021/12/30 09:13:41;;;;;;;;;;;14.90;99.90;;;;;;4994366;28;20319;-79
2021/12/30 09:16:07;;;;;;;;;;;14.90;99.90;;;;;;4978734;28;19920;-82
2021/12/30 09:18:33;;;;;;;;;;;14.90;99.90;;;;;;4979003;28;19972;-80
2021/12/30 09:20:58;;;;;;;;;;;14.90;99.90;;;;;;4996019;28;20016;-82
2021/12/30 09:23:24;;;;;;;;;;;15.00;99.90;;;;;;4995230;28;19992;-79
2021/12/30 09:25:50;;;;;;;;;;;15.00;99.90;;;;;;4995979;28;19914;-79
2021/12/30 09:28:15;;;;;;;;;;;15.00;99.90;;;;;;4979293;28;19920;-81
2021/12/30 09:30:42;;;;;;;;;;;15.10;99.90;;;;;;4995135;28;20342;-79
2021/12/30 09:33:08;;;;;;;;;;;15.10;99.90;;;;;;4995121;28;20020;-80
2021/12/30 09:35:34;;;;;;;;;;;15.10;99.90;;;;;;4994858;28;19905;-79
2021/12/30 09:38:00;;;;;;;;;;;15.10;99.90;;;;;;4978887;28;19956;-82
2021/12/30 09:40:26;;;;;;;;;;;15.20;99.90;;;;;;4994751;28;19917;-79
2021/12/30 09:42:55;;;;;;;;;;;15.20;99.90;;;;;;4994772;28;19960;-82
2021/12/30 09:45:20;;;;;;;;;;;15.20;99.90;;;;;;4996098;28;20316;-79
2021/12/30 09:47:47;;;;;;;;;;;15.30;99.90;;;;;;4996113;28;19905;-84
2021/12/30 09:50:13;;;;;;;;;;;15.30;99.90;;;;;;4994649;28;19918;-83
2021/12/30 09:52:39;;;;;;;;;;;15.30;99.90;;;;;;4994933;28;19910;-79
2021/12/30 09:55:05;;;;;;;;;;;15.20;99.90;;;;;;4979652;28;19910;-80
2021/12/30 09:57:30;;;;;;;;;;;15.20;99.90;;;;;;4995067;28;20445;-78
2021/12/30 09:59:56;;;;;;;;;;;15.30;99.90;;;;;;4978360;28;19917;-80
2021/12/30 10:02:21;;;;;;;;;;;15.40;99.90;;;;;;4977972;28;20317;-79
2021/12/30 10:05:00;;;;;;;;;;;15.50;99.90;;;;;;4994710;28;19917;-79
2021/12/30 10:07:26;;;;;;;;;;;15.60;99.90;;;;;;4994124;28;20005;-79
2021/12/30 10:09:59;;;;;;;;;;;15.80;99.90;;;;;;4994536;28;19953;-80
2021/12/30 10:12:44;;;;;;;;;;;15.90;99.90;;;;;;4994619;28;19910;-79
2021/12/30 10:15:11;;;;;;;;;;;16.10;99.90;;;;;;4994594;28;19906;-79
2021/12/30 10:17:36;;;;;;;;;;;16.20;99.90;;;;;;4994122;28;19901;-81
2021/12/30 10:20:18;;;;;;;;;;;16.10;99.90;;;;;;4994275;28;19964;-80
2021/12/30 10:22:46;;;;;;;;;;;16.00;99.90;;;;;;4994186;28;19910;-83
2021/12/30 10:25:25;;;;;;;;;;;15.90;99.90;;;;;;4994743;28;19936;-82
2021/12/30 10:27:51;;;;;;;;;;;15.80;99.90;;;;;;4994196;28;19906;-80
2021/12/30 10:30:32;;;;;;;;;;;15.70;99.90;;;;;;4995463;28;20341;-84
2021/12/30 10:33:11;;;;;;;;;;;15.70;99.90;;;;;;4993498;28;19953;-79
2021/12/30 10:35:37;;;;;;;;;;;15.60;99.90;;;;;;4993918;28;19916;-80
2021/12/30 10:38:04;;;;;;;;;;;15.60;99.90;;;;;;4977759;28;19910;-79
2021/12/30 10:40:31;;;;;;;;;;;15.60;99.90;;;;;;4993626;28;20269;-80
2021/12/30 10:43:11;;;;;;;;;;;15.70;99.90;;;;;;4994910;28;19917;-80
2021/12/30 10:45:38;;;;;;;;;;;15.70;99.90;;;;;;4993392;28;20294;-79
2021/12/30 10:48:07;;;;;;;;;;;15.70;99.90;;;;;;4993605;28;19910;-79
2021/12/30 10:50:32;;;;;;;;;;;15.60;99.90;;;;;;4993732;28;19924;-79
2021/12/30 10:52:58;;;;;;;;;;;15.60;99.90;;;;;;4977686;28;20008;-79
2021/12/30 10:55:24;;;;;;;;;;;15.60;99.90;;;;;;4977316;28;20270;-79
2021/12/30 10:57:50;;;;;;;;;;;15.60;99.90;;;;;;4994202;28;19926;-79
2021/12/30 11:00:27;;;;;;;;;;;15.60;99.90;;;;;;4977218;28;19918;-79
2021/12/30 11:02:54;;;;;;;;;;;15.60;99.90;;;;;;4993447;28;19906;-79
2021/12/30 11:05:19;;;;;;;;;;;15.70;99.90;;;;;;4993956;28;20001;-84
2021/12/30 11:07:51;;;;;;;;;;;15.80;99.90;;;;;;4994101;28;19906;-79
2021/12/30 11:10:27;;;;;;;;;;;15.90;99.90;;;;;;4993823;28;19906;-79
2021/12/30 11:12:52;;;;;;;;;;;15.90;99.90;;;;;;4994459;28;19905;-80
2021/12/30 11:15:19;;;;;;;;;;;15.90;99.90;;;;;;4995297;28;19936;-79
2021/12/30 11:17:45;;;;;;;;;;;15.90;99.90;;;;;;4994318;28;19976;-79
2021/12/30 11:20:11;;;;;;;;;;;15.90;99.90;;;;;;4994501;28;20423;-79
2021/12/30 11:22:38;;;;;;;;;;;15.80;99.90;;;;;;4995028;28;19906;-82
2021/12/30 11:25:05;;;;;;;;;;;15.80;99.90;;;;;;4993696;28;19906;-79
2021/12/30 11:27:32;;;;;;;;;;;15.70;99.90;;;;;;4993725;28;19910;-80
2021/12/30 11:30:00;;;;;;;;;;;15.70;99.90;;;;;;4993833;28;19977;-79
2021/12/30 11:32:27;;;;;;;;;;;15.70;99.90;;;;;;4994651;28;20008;-80
2021/12/30 11:34:54;;;;;;;;;;;15.60;99.90;;;;;;4993014;28;19932;-78
2021/12/30 11:37:20;;;;;;;;;;;15.60;99.90;;;;;;4977787;28;19929;-79
2021/12/30 11:39:48;;;;;;;;;;;15.60;99.90;;;;;;4993116;28;20339;-79
2021/12/30 11:42:17;;;;;;;;;;;15.50;99.90;;;;;;4993819;28;19913;-78
2021/12/30 11:44:45;;;;;;;;;;;15.50;99.90;;;;;;4994729;28;19964;-78
2021/12/30 11:47:30;;;;;;;;;;;15.50;99.90;;;;;;4992905;28;19933;-79
2021/12/30 11:50:01;;;;;;;;;;;15.50;99.90;;;;;;4988357;28;19917;-78
2021/12/30 11:52:44;;;;;;;;;;;15.50;99.90;;;;;;4992611;28;20049;-83
2021/12/30 11:55:29;;;;;;;;;;;15.60;99.90;;;;;;4992771;28;19912;-78
2021/12/30 11:57:54;;;;;;;;;;;15.60;99.90;;;;;;4992795;28;20306;-79
2021/12/30 12:00:32;;;;;;;;;;;15.60;99.90;;;;;;4992792;28;19984;-79
2021/12/30 12:03:02;;;;;;;;;;;15.60;99.90;;;;;;4993818;28;19914;-79
2021/12/30 12:05:42;;;;;;;;;;;15.60;99.90;;;;;;4976875;28;19968;-82
2021/12/30 12:08:09;;;;;;;;;;;15.70;99.90;;;;;;4993634;28;19992;-79
2021/12/30 12:10:35;;;;;;;;;;;15.70;99.90;;;;;;4992593;28;19905;-79
2021/12/30 12:13:19;;;;;;;;;;;15.70;99.90;;;;;;4976872;28;19961;-80
2021/12/30 12:15:45;;;;;;;;;;;15.70;99.90;;;;;;4992124;28;20393;-80
2021/12/30 12:18:11;;;;;;;;;;;15.70;99.90;;;;;;4975923;28;19949;-79
2021/12/30 12:20:49;;;;;;;;;;;15.80;99.90;;;;;;4975921;28;19926;-79
2021/12/30 12:23:31;;;;;;;;;;;15.80;99.90;;;;;;4991842;28;19953;-79
2021/12/30 12:26:24;;;;;;;;;;;15.80;99.90;;;;;;4992336;28;19910;-80
2021/12/30 12:28:49;;;;;;;;;;;15.80;99.90;;;;;;4990697;28;19902;-80
2021/12/30 12:31:15;;;;;;;;;;;15.80;99.90;;;;;;4992352;28;19928;-80
2021/12/30 12:33:41;;;;;;;;;;;15.80;99.90;;;;;;4976050;28;19961;-81
2021/12/30 12:36:17;;;;;;;;;;;15.90;99.90;;;;;;4992059;28;19996;-81
2021/12/30 12:38:44;;;;;;;;;;;15.80;99.90;;;;;;4992804;28;19912;-80
2021/12/30 12:41:25;;;;;;;;;;;15.90;99.90;;;;;;4992844;28;19914;-80
2021/12/30 12:44:11;;;;;;;;;;;15.90;99.90;;;;;;4991924;28;19952;-82
2021/12/30 12:46:38;;;;;;;;;;;15.90;99.90;;;;;;4991432;28;20318;-80
2021/12/30 12:49:06;;;;;;;;;;;15.90;99.90;;;;;;4995366;28;20333;-79
2021/12/30 12:51:32;;;;;;;;;;;15.90;99.90;;;;;;4995750;28;19905;-84
2021/12/30 12:54:02;;;;;;;;;;;15.90;99.90;;;;;;4995902;28;19914;-79
2021/12/30 12:56:28;;;;;;;;;;;16.00;99.90;;;;;;4980099;28;20008;-80
2021/12/30 12:58:54;;;;;;;;;;;16.00;99.90;;;;;;4997108;28;20062;-78
2021/12/30 13:01:21;;;;;;;;;;;16.00;99.90;;;;;;4995713;28;19921;-78
2021/12/30 13:03:47;;;;;;;;;;;16.00;99.90;;;;;;4995260;28;19960;-80
2021/12/30 13:06:15;;;;;;;;;;;16.00;99.90;;;;;;4995749;28;19905;-78
2021/12/30 13:08:43;;;;;;;;;;;16.00;99.90;;;;;;4995910;28;19906;-78
2021/12/30 13:11:10;;;;;;;;;;;16.00;99.90;;;;;;4996086;28;19913;-78
2021/12/30 13:13:41;;;;;;;;;;;16.00;99.90;;;;;;4996607;28;19959;-81
2021/12/30 13:16:18;;;;;;;;;;;16.00;99.90;;;;;;4996083;28;19917;-78
2021/12/30 13:18:57;;;;;;;;;;;15.90;99.90;;;;;;4995986;28;19905;-77
2021/12/30 13:21:22;;;;;;;;;;;15.90;99.90;;;;;;4995856;28;19914;-78
2021/12/30 13:23:48;;;;;;;;;;;15.90;99.90;;;;;;4996021;28;20338;-78
2021/12/30 13:26:13;;;;;;;;;;;16.00;99.90;;;;;;4979525;28;20270;-77
2021/12/30 13:28:46;;;;;;;;;;;16.00;99.90;;;;;;4979663;28;20361;-78
2021/12/30 13:31:14;;;;;;;;;;;16.00;99.90;;;;;;4995174;28;20265;-76
2021/12/30 13:33:59;;;;;;;;;;;16.00;99.90;;;;;;4994671;28;19906;-80
2021/12/30 13:36:25;;;;;;;;;;;16.00;99.90;;;;;;4995610;28;20261;-78
2021/12/30 13:38:51;;;;;;;;;;;16.00;99.90;;;;;;4978947;28;19929;-78
2021/12/30 13:41:18;;;;;;;;;;;15.90;99.90;;;;;;4978716;28;19918;-78
2021/12/30 13:43:46;;;;;;;;;;;15.90;99.90;;;;;;4995049;28;20294;-79
2021/12/30 13:46:15;;;;;;;;;;;15.80;99.90;;;;;;4978692;28;19964;-79
2021/12/30 13:48:41;;;;;;;;;;;15.80;99.90;;;;;;4996083;28;19997;-80
2021/12/30 13:51:10;;;;;;;;;;;15.70;99.90;;;;;;4978374;28;20020;-79
2021/12/30 13:53:36;;;;;;;;;;;15.80;99.90;;;;;;4995266;28;19914;-79
2021/12/30 13:56:06;;;;;;;;;;;15.70;99.90;;;;;;4995147;28;19987;-80
2021/12/30 13:58:34;;;;;;;;;;;15.70;99.90;;;;;;4993355;28;19913;-78
2021/12/30 14:01:08;;;;;;;;;;;15.70;99.90;;;;;;4995084;28;20028;-82
2021/12/30 14:03:34;;;;;;;;;;;15.70;99.90;;;;;;4995870;28;19945;-79
2021/12/30 14:06:20;;;;;;;;;;;15.60;99.90;;;;;;4994684;28;20357;-79
2021/12/30 14:08:59;;;;;;;;;;;15.60;99.90;;;;;;4995842;28;19912;-79
2021/12/30 14:11:28;;;;;;;;;;;15.60;99.90;;;;;;4995991;28;19956;-79
2021/12/30 14:13:54;;;;;;;;;;;15.50;99.90;;;;;;4994636;28;20266;-79
2021/12/30 14:16:21;;;;;;;;;;;15.50;99.90;;;;;;4995942;28;19906;-79